sensor_id;sensor_type;location;lat;lon;timestamp;pressure;altitude;pressure_sealevel;temperature;humidity
30421;BME280;17218;54.070;10.012;2023-07-30T00:00:20;100466.03;;;16.27;100.00
30421;BME280;17218;54.070;10.012;2023-07-30T00:02:47;100471.94;;;16.32;100.00
30421;BME280;17218;54.070;10.012;2023-07-30T00:05:13;100478.72;;;16.38;100.00
30421;BME280;17218;54.070;10.012;2023-07-30T00:07:40;100466.28;;;16.45;100.00
30421;BME280;17218;54.070;10.012;2023-07-30T00:10:08;100475.53;;;16.54;100.00
30421;BME280;17218;54.070;10.012;2023-07-30T00:12:35;100484.16;;;16.56;100.00
30421;BME280;17218;54.070;10.012;2023-07-30T00:15:01;100476.22;;;16.59;100.00
30421;BME280;17218;54.070;10.012;2023-07-30T00:17:28;100480.41;;;16.63;100.00
30421;BME280;17218;54.070;10.012;2023-07-30T00:19:54;100483.09;;;16.62;100.00
30421;BME280;17218;54.070;10.012;2023-07-30T00:22:21;100484.78;;;16.63;100.00
30421;BME280;17218;54.070;10.012;2023-07-30T00:24:47;100483.63;;;16.72;100.00
30421;BME280;17218;54.070;10.012;2023-07-30T00:27:15;100493.91;;;16.76;100.00
30421;BME280;17218;54.070;10.012;2023-07-30T00:29:41;100491.22;;;16.78;100.00
30421;BME280;17218;54.070;10.012;2023-07-30T00:32:08;100479.91;;;16.77;100.00
30421;BME280;17218;54.070;10.012;2023-07-30T00:34:34;100485.19;;;16.76;100.00
30421;BME280;17218;54.070;10.012;2023-07-30T00:37:01;100493.03;;;16.76;100.00
30421;BME280;17218;54.070;10.012;2023-07-30T00:39:27;100481.78;;;16.74;100.00
30421;BME280;17218;54.070;10.012;2023-07-30T00:41:54;100486.84;;;16.78;100.00
30421;BME280;17218;54.070;10.012;2023-07-30T00:44:22;100479.00;;;16.78;100.00
30421;BME280;17218;54.070;10.012;2023-07-30T00:46:48;100473.78;;;16.78;100.00
30421;BME280;17218;54.070;10.012;2023-07-30T00:49:15;100474.50;;;16.82;100.00
30421;BME280;17218;54.070;10.012;2023-07-30T00:51:42;100485.78;;;16.84;100.00
30421;BME280;17218;54.070;10.012;2023-07-30T00:54:10;100484.69;;;16.90;100.00
30421;BME280;17218;54.070;10.012;2023-07-30T00:56:36;100488.84;;;16.96;100.00
30421;BME280;17218;54.070;10.012;2023-07-30T00:59:03;100479.13;;;16.98;100.00
30421;BME280;17218;54.070;10.012;2023-07-30T01:01:33;100485.97;;;17.02;100.00
30421;BME280;17218;54.070;10.012;2023-07-30T01:03:59;100485.06;;;17.03;100.00
30421;BME280;17218;54.070;10.012;2023-07-30T01:06:26;100486.63;;;17.07;100.00
30421;BME280;17218;54.070;10.012;2023-07-30T01:08:52;100481.31;;;17.10;100.00
30421;BME280;17218;54.070;10.012;2023-07-30T01:11:19;100490.00;;;17.11;100.00
30421;BME280;17218;54.070;10.012;2023-07-30T01:13:46;100484.78;;;17.11;100.00
30421;BME280;17218;54.070;10.012;2023-07-30T01:16:13;100499.63;;;17.10;100.00
30421;BME280;17218;54.070;10.012;2023-07-30T01:18:41;100502.13;;;17.13;100.00
30421;BME280;17218;54.070;10.012;2023-07-30T01:21:08;100494.97;;;17.19;100.00
30421;BME280;17218;54.070;10.012;2023-07-30T01:23:35;100491.25;;;17.24;100.00
30421;BME280;17218;54.070;10.012;2023-07-30T01:26:07;100497.22;;;17.28;100.00
30421;BME280;17218;54.070;10.012;2023-07-30T01:28:37;100497.94;;;17.32;100.00
30421;BME280;17218;54.070;10.012;2023-07-30T01:31:06;100499.59;;;17.34;100.00
30421;BME280;17218;54.070;10.012;2023-07-30T01:33:33;100496.84;;;17.37;100.00
30421;BME280;17218;54.070;10.012;2023-07-30T01:36:01;100492.53;;;17.36;100.00
30421;BME280;17218;54.070;10.012;2023-07-30T01:38:29;100505.72;;;17.33;100.00
30421;BME280;17218;54.070;10.012;2023-07-30T01:40:56;100492.63;;;17.33;100.00
30421;BME280;17218;54.070;10.012;2023-07-30T01:43:23;100497.50;;;17.43;100.00
30421;BME280;17218;54.070;10.012;2023-07-30T01:45:49;100507.09;;;17.44;100.00
30421;BME280;17218;54.070;10.012;2023-07-30T01:48:15;100526.31;;;17.43;100.00
30421;BME280;17218;54.070;10.012;2023-07-30T01:50:42;100503.84;;;17.37;100.00
30421;BME280;17218;54.070;10.012;2023-07-30T01:53:12;100503.31;;;17.28;100.00
30421;BME280;17218;54.070;10.012;2023-07-30T01:55:40;100496.41;;;17.26;100.00
30421;BME280;17218;54.070;10.012;2023-07-30T01:58:08;100488.28;;;17.34;100.00
30421;BME280;17218;54.070;10.012;2023-07-30T02:00:35;100491.63;;;17.37;100.00
30421;BME280;17218;54.070;10.012;2023-07-30T02:03:02;100493.31;;;17.38;100.00
30421;BME280;17218;54.070;10.012;2023-07-30T02:05:28;100497.78;;;17.36;100.00
30421;BME280;17218;54.070;10.012;2023-07-30T02:07:54;100496.28;;;17.29;100.00
30421;BME280;17218;54.070;10.012;2023-07-30T02:10:21;100493.81;;;17.26;100.00
30421;BME280;17218;54.070;10.012;2023-07-30T02:12:49;100500.78;;;17.25;100.00
30421;BME280;17218;54.070;10.012;2023-07-30T02:15:15;100506.88;;;17.26;100.00
30421;BME280;17218;54.070;10.012;2023-07-30T02:17:42;100508.53;;;17.28;100.00
30421;BME280;17218;54.070;10.012;2023-07-30T02:20:09;100505.88;;;17.30;100.00
30421;BME280;17218;54.070;10.012;2023-07-30T02:22:35;100500.50;;;17.33;100.00
30421;BME280;17218;54.070;10.012;2023-07-30T02:25:02;100499.59;;;17.34;100.00
30421;BME280;17218;54.070;10.012;2023-07-30T02:27:28;100497.81;;;17.35;100.00
30421;BME280;17218;54.070;10.012;2023-07-30T02:29:57;100499.47;;;17.37;100.00
30421;BME280;17218;54.070;10.012;2023-07-30T02:32:23;100502.81;;;17.41;100.00
30421;BME280;17218;54.070;10.012;2023-07-30T02:34:50;100504.69;;;17.37;100.00
30421;BME280;17218;54.070;10.012;2023-07-30T02:37:16;100504.84;;;17.34;100.00
30421;BME280;17218;54.070;10.012;2023-07-30T02:39:43;100503.13;;;17.33;100.00
30421;BME280;17218;54.070;10.012;2023-07-30T02:42:09;100506.75;;;17.29;100.00
30421;BME280;17218;54.070;10.012;2023-07-30T02:44:36;100501.59;;;17.27;100.00
30421;BME280;17218;54.070;10.012;2023-07-30T02:47:04;100508.84;;;17.21;100.00
30421;BME280;17218;54.070;10.012;2023-07-30T02:49:31;100507.31;;;17.15;100.00
30421;BME280;17218;54.070;10.012;2023-07-30T02:51:57;100505.63;;;17.14;100.00
30421;BME280;17218;54.070;10.012;2023-07-30T02:54:24;100504.84;;;17.10;100.00
30421;BME280;17218;54.070;10.012;2023-07-30T02:56:50;100498.81;;;17.08;100.00
30421;BME280;17218;54.070;10.012;2023-07-30T02:59:17;100503.13;;;17.09;100.00
30421;BME280;17218;54.070;10.012;2023-07-30T03:01:43;100499.72;;;17.07;100.00
30421;BME280;17218;54.070;10.012;2023-07-30T03:04:11;100508.50;;;17.06;100.00
30421;BME280;17218;54.070;10.012;2023-07-30T03:06:38;100510.25;;;17.05;100.00
30421;BME280;17218;54.070;10.012;2023-07-30T03:09:04;100504.22;;;17.03;100.00
30421;BME280;17218;54.070;10.012;2023-07-30T03:11:30;100509.63;;;16.99;100.00
30421;BME280;17218;54.070;10.012;2023-07-30T03:13:57;100519.50;;;16.92;100.00
30421;BME280;17218;54.070;10.012;2023-07-30T03:16:23;100527.38;;;16.90;100.00
30421;BME280;17218;54.070;10.012;2023-07-30T03:18:50;100529.84;;;16.95;100.00
30421;BME280;17218;54.070;10.012;2023-07-30T03:21:18;100530.50;;;17.00;100.00
30421;BME280;17218;54.070;10.012;2023-07-30T03:23:44;100526.94;;;17.03;100.00
30421;BME280;17218;54.070;10.012;2023-07-30T03:26:13;100533.97;;;17.01;100.00
30421;BME280;17218;54.070;10.012;2023-07-30T03:28:40;100536.59;;;17.01;100.00
30421;BME280;17218;54.070;10.012;2023-07-30T03:31:06;100526.00;;;17.04;100.00
30421;BME280;17218;54.070;10.012;2023-07-30T03:33:32;100527.66;;;17.07;100.00
30421;BME280;17218;54.070;10.012;2023-07-30T03:36:00;100525.88;;;17.07;100.00
30421;BME280;17218;54.070;10.012;2023-07-30T03:38:28;100529.25;;;17.11;100.00
30421;BME280;17218;54.070;10.012;2023-07-30T03:40:54;100531.00;;;17.12;100.00
30421;BME280;17218;54.070;10.012;2023-07-30T03:43:21;100538.78;;;17.13;100.00
30421;BME280;17218;54.070;10.012;2023-07-30T03:45:47;100540.44;;;17.16;100.00
30421;BME280;17218;54.070;10.012;2023-07-30T03:48:14;100539.69;;;17.12;100.00
30421;BME280;17218;54.070;10.012;2023-07-30T03:50:40;100539.63;;;17.14;100.00
30421;BME280;17218;54.070;10.012;2023-07-30T03:53:07;100552.66;;;17.15;100.00
30421;BME280;17218;54.070;10.012;2023-07-30T03:55:34;100543.09;;;17.14;100.00
30421;BME280;17218;54.070;10.012;2023-07-30T03:58:01;100553.47;;;17.17;100.00
30421;BME280;17218;54.070;10.012;2023-07-30T04:00:27;100552.38;;;17.23;100.00
30421;BME280;17218;54.070;10.012;2023-07-30T04:02:54;100542.72;;;17.24;100.00
30421;BME280;17218;54.070;10.012;2023-07-30T04:05:21;100551.66;;;17.18;100.00
30421;BME280;17218;54.070;10.012;2023-07-30T04:07:47;100556.31;;;17.10;100.00
30421;BME280;17218;54.070;10.012;2023-07-30T04:10:14;100547.81;;;17.04;100.00
30421;BME280;17218;54.070;10.012;2023-07-30T04:12:42;100553.94;;;17.03;100.00
30421;BME280;17218;54.070;10.012;2023-07-30T04:15:08;100552.19;;;17.04;100.00
30421;BME280;17218;54.070;10.012;2023-07-30T04:17:36;100549.91;;;16.95;100.00
30421;BME280;17218;54.070;10.012;2023-07-30T04:20:03;100550.91;;;16.90;100.00
30421;BME280;17218;54.070;10.012;2023-07-30T04:22:30;100555.41;;;16.87;100.00
30421;BME280;17218;54.070;10.012;2023-07-30T04:24:57;100568.41;;;16.90;100.00
30421;BME280;17218;54.070;10.012;2023-07-30T04:27:23;100566.53;;;16.93;100.00
30421;BME280;17218;54.070;10.012;2023-07-30T04:29:51;100565.47;;;16.98;100.00
30421;BME280;17218;54.070;10.012;2023-07-30T04:32:17;100565.19;;;17.05;100.00
30421;BME280;17218;54.070;10.012;2023-07-30T04:34:44;100569.53;;;17.07;100.00
30421;BME280;17218;54.070;10.012;2023-07-30T04:37:10;100566.84;;;17.08;100.00
30421;BME280;17218;54.070;10.012;2023-07-30T04:39:37;100565.81;;;17.14;100.00
30421;BME280;17218;54.070;10.012;2023-07-30T04:42:04;100564.88;;;17.15;100.00
30421;BME280;17218;54.070;10.012;2023-07-30T04:44:31;100558.63;;;17.19;100.00
30421;BME280;17218;54.070;10.012;2023-07-30T04:46:58;100566.13;;;17.28;100.00
30421;BME280;17218;54.070;10.012;2023-07-30T04:49:25;100569.72;;;17.26;100.00
30421;BME280;17218;54.070;10.012;2023-07-30T04:51:51;100566.97;;;17.29;100.00
30421;BME280;17218;54.070;10.012;2023-07-30T04:54:18;100571.13;;;17.35;100.00
30421;BME280;17218;54.070;10.012;2023-07-30T04:56:44;100568.19;;;17.43;100.00
30421;BME280;17218;54.070;10.012;2023-07-30T04:59:11;100574.03;;;17.49;100.00
30421;BME280;17218;54.070;10.012;2023-07-30T05:01:37;100560.84;;;17.52;100.00
30421;BME280;17218;54.070;10.012;2023-07-30T05:04:05;100554.63;;;17.55;100.00
30421;BME280;17218;54.070;10.012;2023-07-30T05:06:32;100564.13;;;17.58;100.00
30421;BME280;17218;54.070;10.012;2023-07-30T05:08:58;100555.72;;;17.49;100.00
30421;BME280;17218;54.070;10.012;2023-07-30T05:11:25;100547.09;;;17.47;100.00
30421;BME280;17218;54.070;10.012;2023-07-30T05:13:51;100552.31;;;17.47;100.00
30421;BME280;17218;54.070;10.012;2023-07-30T05:16:17;100545.66;;;17.38;100.00
30421;BME280;17218;54.070;10.012;2023-07-30T05:18:44;100557.00;;;17.39;100.00
30421;BME280;17218;54.070;10.012;2023-07-30T05:21:12;100550.22;;;17.33;100.00
30421;BME280;17218;54.070;10.012;2023-07-30T05:23:39;100557.94;;;17.38;100.00
30421;BME280;17218;54.070;10.012;2023-07-30T05:26:05;100558.81;;;17.37;100.00
30421;BME280;17218;54.070;10.012;2023-07-30T05:28:31;100564.91;;;17.37;100.00
30421;BME280;17218;54.070;10.012;2023-07-30T05:30:59;100562.91;;;17.44;100.00
30421;BME280;17218;54.070;10.012;2023-07-30T05:33:25;100559.09;;;17.53;100.00
30421;BME280;17218;54.070;10.012;2023-07-30T05:35:52;100555.78;;;17.48;100.00
30421;BME280;17218;54.070;10.012;2023-07-30T05:38:19;100546.03;;;17.51;100.00
30421;BME280;17218;54.070;10.012;2023-07-30T05:40:46;100548.56;;;17.55;100.00
30421;BME280;17218;54.070;10.012;2023-07-30T05:43:12;100558.03;;;17.57;100.00
30421;BME280;17218;54.070;10.012;2023-07-30T05:45:39;100550.31;;;17.54;100.00
30421;BME280;17218;54.070;10.012;2023-07-30T05:48:05;100546.84;;;17.53;100.00
30421;BME280;17218;54.070;10.012;2023-07-30T05:50:32;100547.47;;;17.60;100.00
30421;BME280;17218;54.070;10.012;2023-07-30T05:52:58;100543.06;;;17.61;100.00
30421;BME280;17218;54.070;10.012;2023-07-30T05:55:26;100543.69;;;17.68;100.00
30421;BME280;17218;54.070;10.012;2023-07-30T05:57:52;100547.78;;;17.73;100.00
30421;BME280;17218;54.070;10.012;2023-07-30T06:00:20;100556.28;;;17.80;100.00
30421;BME280;17218;54.070;10.012;2023-07-30T06:02:47;100558.69;;;17.85;100.00
30421;BME280;17218;54.070;10.012;2023-07-30T06:05:13;100555.03;;;17.89;100.00
30421;BME280;17218;54.070;10.012;2023-07-30T06:07:39;100563.09;;;17.84;100.00
30421;BME280;17218;54.070;10.012;2023-07-30T06:10:07;100555.09;;;17.87;100.00
30421;BME280;17218;54.070;10.012;2023-07-30T06:12:34;100557.91;;;17.83;100.00
30421;BME280;17218;54.070;10.012;2023-07-30T06:15:01;100556.41;;;17.77;100.00
30421;BME280;17218;54.070;10.012;2023-07-30T06:17:27;100552.66;;;17.83;100.00
30421;BME280;17218;54.070;10.012;2023-07-30T06:19:54;100552.47;;;17.87;100.00
30421;BME280;17218;54.070;10.012;2023-07-30T06:22:20;100564.34;;;17.96;100.00
30421;BME280;17218;54.070;10.012;2023-07-30T06:24:47;100553.00;;;17.96;100.00
30421;BME280;17218;54.070;10.012;2023-07-30T06:27:13;100557.44;;;17.94;100.00
30421;BME280;17218;54.070;10.012;2023-07-30T06:29:41;100546.94;;;17.95;100.00
30421;BME280;17218;54.070;10.012;2023-07-30T06:32:07;100551.75;;;17.84;100.00
30421;BME280;17218;54.070;10.012;2023-07-30T06:34:34;100552.78;;;17.80;100.00
30421;BME280;17218;54.070;10.012;2023-07-30T06:37:00;100542.16;;;17.83;100.00
30421;BME280;17218;54.070;10.012;2023-07-30T06:39:27;100549.31;;;17.79;100.00
30421;BME280;17218;54.070;10.012;2023-07-30T06:41:53;100553.44;;;17.85;100.00
30421;BME280;17218;54.070;10.012;2023-07-30T06:44:20;100553.50;;;17.83;100.00
30421;BME280;17218;54.070;10.012;2023-07-30T06:46:47;100548.41;;;17.80;100.00
30421;BME280;17218;54.070;10.012;2023-07-30T06:49:14;100554.53;;;17.79;100.00
30421;BME280;17218;54.070;10.012;2023-07-30T06:51:40;100550.41;;;17.73;100.00
30421;BME280;17218;54.070;10.012;2023-07-30T06:54:07;100552.06;;;17.76;100.00
30421;BME280;17218;54.070;10.012;2023-07-30T06:56:33;100556.81;;;17.66;100.00
30421;BME280;17218;54.070;10.012;2023-07-30T06:59:01;100557.00;;;17.61;100.00
30421;BME280;17218;54.070;10.012;2023-07-30T07:01:27;100566.91;;;17.75;100.00
30421;BME280;17218;54.070;10.012;2023-07-30T07:03:55;100563.94;;;17.85;100.00
30421;BME280;17218;54.070;10.012;2023-07-30T07:06:22;100571.34;;;17.96;100.00
30421;BME280;17218;54.070;10.012;2023-07-30T07:08:48;100562.66;;;17.95;100.00
30421;BME280;17218;54.070;10.012;2023-07-30T07:11:15;100569.44;;;17.99;100.00
30421;BME280;17218;54.070;10.012;2023-07-30T07:13:41;100553.72;;;17.99;100.00
30421;BME280;17218;54.070;10.012;2023-07-30T07:16:08;100545.88;;;17.99;100.00
30421;BME280;17218;54.070;10.012;2023-07-30T07:18:34;100549.94;;;18.07;100.00
30421;BME280;17218;54.070;10.012;2023-07-30T07:21:02;100562.66;;;18.18;100.00
30421;BME280;17218;54.070;10.012;2023-07-30T07:23:29;100553.31;;;18.31;100.00
30421;BME280;17218;54.070;10.012;2023-07-30T07:25:56;100548.00;;;18.33;100.00
30421;BME280;17218;54.070;10.012;2023-07-30T07:28:22;100561.09;;;18.33;100.00
30421;BME280;17218;54.070;10.012;2023-07-30T07:30:48;100547.81;;;18.38;100.00
30421;BME280;17218;54.070;10.012;2023-07-30T07:33:15;100537.59;;;18.31;100.00
30421;BME280;17218;54.070;10.012;2023-07-30T07:35:41;100551.09;;;18.43;100.00
30421;BME280;17218;54.070;10.012;2023-07-30T07:38:09;100548.22;;;18.49;100.00
30421;BME280;17218;54.070;10.012;2023-07-30T07:40:37;100550.16;;;18.44;100.00
30421;BME280;17218;54.070;10.012;2023-07-30T07:43:05;100548.25;;;18.47;100.00
30421;BME280;17218;54.070;10.012;2023-07-30T07:45:31;100546.78;;;18.42;100.00
30421;BME280;17218;54.070;10.012;2023-07-30T07:47:57;100550.16;;;18.44;100.00
30421;BME280;17218;54.070;10.012;2023-07-30T07:50:24;100550.47;;;18.57;100.00
30421;BME280;17218;54.070;10.012;2023-07-30T07:52:50;100554.81;;;18.77;100.00
30421;BME280;17218;54.070;10.012;2023-07-30T07:55:18;100556.63;;;18.96;100.00
30421;BME280;17218;54.070;10.012;2023-07-30T07:57:45;100545.84;;;19.02;100.00
30421;BME280;17218;54.070;10.012;2023-07-30T08:00:11;100529.94;;;19.05;100.00
30421;BME280;17218;54.070;10.012;2023-07-30T08:02:38;100536.22;;;19.03;100.00
30421;BME280;17218;54.070;10.012;2023-07-30T08:05:04;100546.56;;;19.06;100.00
30421;BME280;17218;54.070;10.012;2023-07-30T08:07:31;100533.16;;;19.12;100.00
30421;BME280;17218;54.070;10.012;2023-07-30T08:09:57;100528.91;;;19.10;100.00
30421;BME280;17218;54.070;10.012;2023-07-30T08:12:25;100527.41;;;19.23;100.00
30421;BME280;17218;54.070;10.012;2023-07-30T08:14:52;100525.38;;;19.30;100.00
30421;BME280;17218;54.070;10.012;2023-07-30T08:17:18;100526.69;;;19.39;100.00
30421;BME280;17218;54.070;10.012;2023-07-30T08:19:46;100528.72;;;19.51;100.00
30421;BME280;17218;54.070;10.012;2023-07-30T08:22:12;100516.25;;;19.37;100.00
30421;BME280;17218;54.070;10.012;2023-07-30T08:24:38;100523.69;;;19.47;100.00
30421;BME280;17218;54.070;10.012;2023-07-30T08:27:05;100511.72;;;19.59;100.00
30421;BME280;17218;54.070;10.012;2023-07-30T08:29:33;100510.28;;;19.71;100.00
30421;BME280;17218;54.070;10.012;2023-07-30T08:32:00;100516.84;;;19.79;100.00
30421;BME280;17218;54.070;10.012;2023-07-30T08:34:26;100500.00;;;19.84;100.00
30421;BME280;17218;54.070;10.012;2023-07-30T08:36:53;100502.78;;;19.98;100.00
30421;BME280;17218;54.070;10.012;2023-07-30T08:39:19;100504.59;;;20.16;100.00
30421;BME280;17218;54.070;10.012;2023-07-30T08:41:46;100510.59;;;20.35;100.00
30421;BME280;17218;54.070;10.012;2023-07-30T08:44:12;100503.81;;;20.47;100.00
30421;BME280;17218;54.070;10.012;2023-07-30T08:46:40;100477.28;;;20.52;100.00
30421;BME280;17218;54.070;10.012;2023-07-30T08:49:07;100477.19;;;20.54;100.00
30421;BME280;17218;54.070;10.012;2023-07-30T08:51:34;100478.81;;;20.56;100.00
30421;BME280;17218;54.070;10.012;2023-07-30T08:54:03;100491.44;;;20.66;100.00
30421;BME280;17218;54.070;10.012;2023-07-30T08:56:30;100483.75;;;20.79;100.00
30421;BME280;17218;54.070;10.012;2023-07-30T08:58:58;100478.31;;;20.82;100.00
30421;BME280;17218;54.070;10.012;2023-07-30T09:01:26;100479.78;;;20.88;100.00
30421;BME280;17218;54.070;10.012;2023-07-30T09:03:57;100479.69;;;20.89;100.00
30421;BME280;17218;54.070;10.012;2023-07-30T09:06:25;100480.13;;;20.97;100.00
30421;BME280;17218;54.070;10.012;2023-07-30T09:08:52;100477.03;;;21.21;100.00
30421;BME280;17218;54.070;10.012;2023-07-30T09:11:19;100480.59;;;21.37;100.00
30421;BME280;17218;54.070;10.012;2023-07-30T09:13:46;100478.97;;;21.34;100.00
30421;BME280;17218;54.070;10.012;2023-07-30T09:16:14;100478.50;;;21.27;100.00
30421;BME280;17218;54.070;10.012;2023-07-30T09:18:41;100481.91;;;21.13;100.00
30421;BME280;17218;54.070;10.012;2023-07-30T09:21:10;100481.28;;;20.92;100.00
30421;BME280;17218;54.070;10.012;2023-07-30T09:23:40;100488.06;;;20.64;100.00
30421;BME280;17218;54.070;10.012;2023-07-30T09:26:07;100493.28;;;20.47;100.00
30421;BME280;17218;54.070;10.012;2023-07-30T09:28:34;100495.88;;;20.31;100.00
30421;BME280;17218;54.070;10.012;2023-07-30T09:31:01;100508.44;;;20.26;100.00
30421;BME280;17218;54.070;10.012;2023-07-30T09:33:28;100517.88;;;20.30;100.00
30421;BME280;17218;54.070;10.012;2023-07-30T09:35:54;100523.19;;;20.29;100.00
30421;BME280;17218;54.070;10.012;2023-07-30T09:38:22;100525.13;;;20.25;100.00
30421;BME280;17218;54.070;10.012;2023-07-30T09:40:49;100533.66;;;20.12;100.00
30421;BME280;17218;54.070;10.012;2023-07-30T09:43:15;100535.19;;;19.99;100.00
30421;BME280;17218;54.070;10.012;2023-07-30T09:45:45;100533.22;;;19.85;100.00
30421;BME280;17218;54.070;10.012;2023-07-30T09:48:11;100543.06;;;19.81;100.00
30421;BME280;17218;54.070;10.012;2023-07-30T09:50:38;100529.84;;;19.83;100.00
30421;BME280;17218;54.070;10.012;2023-07-30T09:53:04;100537.25;;;19.92;100.00
30421;BME280;17218;54.070;10.012;2023-07-30T09:55:32;100535.41;;;19.94;100.00
30421;BME280;17218;54.070;10.012;2023-07-30T09:57:59;100534.72;;;19.90;100.00
30421;BME280;17218;54.070;10.012;2023-07-30T10:00:27;100532.94;;;19.91;100.00
30421;BME280;17218;54.070;10.012;2023-07-30T10:02:58;100543.22;;;19.78;100.00
30421;BME280;17218;54.070;10.012;2023-07-30T10:05:29;100527.94;;;19.49;100.00
30421;BME280;17218;54.070;10.012;2023-07-30T10:08:01;100530.63;;;19.48;100.00
30421;BME280;17218;54.070;10.012;2023-07-30T10:10:29;100528.25;;;19.43;100.00
30421;BME280;17218;54.070;10.012;2023-07-30T10:13:02;100537.47;;;19.33;100.00
30421;BME280;17218;54.070;10.012;2023-07-30T10:15:34;100548.19;;;19.47;100.00
30421;BME280;17218;54.070;10.012;2023-07-30T10:18:07;100558.50;;;19.70;100.00
30421;BME280;17218;54.070;10.012;2023-07-30T10:20:34;100557.34;;;19.75;100.00
30421;BME280;17218;54.070;10.012;2023-07-30T10:23:05;100558.31;;;19.55;100.00
30421;BME280;17218;54.070;10.012;2023-07-30T10:25:52;100550.66;;;19.50;100.00
30421;BME280;17218;54.070;10.012;2023-07-30T10:28:47;100556.72;;;19.70;100.00
30421;BME280;17218;54.070;10.012;2023-07-30T10:31:41;100551.72;;;19.83;100.00
30421;BME280;17218;54.070;10.012;2023-07-30T10:34:22;100537.31;;;20.10;100.00
30421;BME280;17218;54.070;10.012;2023-07-30T10:37:22;100524.91;;;20.30;100.00
30421;BME280;17218;54.070;10.012;2023-07-30T10:39:51;100528.53;;;20.45;100.00
30421;BME280;17218;54.070;10.012;2023-07-30T10:42:18;100527.41;;;20.49;100.00
30421;BME280;17218;54.070;10.012;2023-07-30T10:45:27;100536.63;;;20.40;100.00
30421;BME280;17218;54.070;10.012;2023-07-30T10:51:09;100531.88;;;20.65;100.00
30421;BME280;17218;54.070;10.012;2023-07-30T10:53:50;100527.38;;;20.67;100.00
30421;BME280;17218;54.070;10.012;2023-07-30T10:56:36;100529.22;;;20.65;100.00
30421;BME280;17218;54.070;10.012;2023-07-30T10:59:06;100523.78;;;20.68;100.00
30421;BME280;17218;54.070;10.012;2023-07-30T11:01:37;100529.66;;;20.73;100.00
30421;BME280;17218;54.070;10.012;2023-07-30T11:04:14;100524.16;;;20.61;100.00
30421;BME280;17218;54.070;10.012;2023-07-30T11:06:45;100544.53;;;20.74;100.00
30421;BME280;17218;54.070;10.012;2023-07-30T11:09:18;100533.16;;;20.90;100.00
30421;BME280;17218;54.070;10.012;2023-07-30T11:11:45;100519.75;;;20.94;100.00
30421;BME280;17218;54.070;10.012;2023-07-30T11:14:14;100519.47;;;21.17;100.00
30421;BME280;17218;54.070;10.012;2023-07-30T11:16:48;100510.09;;;21.27;100.00
30421;BME280;17218;54.070;10.012;2023-07-30T11:19:15;100508.22;;;21.29;100.00
30421;BME280;17218;54.070;10.012;2023-07-30T11:21:44;100518.78;;;21.13;100.00
30421;BME280;17218;54.070;10.012;2023-07-30T11:24:11;100511.00;;;20.94;100.00
30421;BME280;17218;54.070;10.012;2023-07-30T11:26:37;100517.34;;;20.73;100.00
30421;BME280;17218;54.070;10.012;2023-07-30T11:29:14;100515.59;;;20.74;100.00
30421;BME280;17218;54.070;10.012;2023-07-30T11:31:41;100512.41;;;21.01;100.00
30421;BME280;17218;54.070;10.012;2023-07-30T11:34:10;100520.38;;;21.32;100.00
30421;BME280;17218;54.070;10.012;2023-07-30T11:36:37;100510.59;;;21.34;100.00
30421;BME280;17218;54.070;10.012;2023-07-30T11:39:04;100514.16;;;21.33;100.00
30421;BME280;17218;54.070;10.012;2023-07-30T11:41:31;100516.09;;;21.45;100.00
30421;BME280;17218;54.070;10.012;2023-07-30T11:43:57;100509.19;;;21.59;100.00
30421;BME280;17218;54.070;10.012;2023-07-30T11:46:24;100506.41;;;21.77;100.00
30421;BME280;17218;54.070;10.012;2023-07-30T11:48:52;100512.22;;;21.67;100.00
30421;BME280;17218;54.070;10.012;2023-07-30T11:51:22;100513.44;;;21.62;100.00
30421;BME280;17218;54.070;10.012;2023-07-30T11:53:51;100501.78;;;21.82;100.00
30421;BME280;17218;54.070;10.012;2023-07-30T11:56:22;100503.25;;;22.32;100.00
30421;BME280;17218;54.070;10.012;2023-07-30T11:58:52;100495.75;;;22.97;100.00
30421;BME280;17218;54.070;10.012;2023-07-30T12:01:19;100502.75;;;23.53;100.00
30421;BME280;17218;54.070;10.012;2023-07-30T12:03:45;100497.84;;;24.14;100.00
30421;BME280;17218;54.070;10.012;2023-07-30T12:06:12;100501.69;;;24.36;100.00
30421;BME280;17218;54.070;10.012;2023-07-30T12:08:40;100501.91;;;24.46;100.00
30421;BME280;17218;54.070;10.012;2023-07-30T12:11:08;100501.50;;;24.26;100.00
30421;BME280;17218;54.070;10.012;2023-07-30T12:13:42;100509.72;;;24.08;100.00
30421;BME280;17218;54.070;10.012;2023-07-30T12:16:09;100527.59;;;24.04;100.00
30421;BME280;17218;54.070;10.012;2023-07-30T12:18:37;100499.16;;;24.21;100.00
30421;BME280;17218;54.070;10.012;2023-07-30T12:21:05;100501.38;;;24.40;100.00
30421;BME280;17218;54.070;10.012;2023-07-30T12:23:36;100493.50;;;24.65;100.00
30421;BME280;17218;54.070;10.012;2023-07-30T12:26:04;100491.50;;;25.31;100.00
30421;BME280;17218;54.070;10.012;2023-07-30T12:28:31;100486.97;;;25.80;100.00
30421;BME280;17218;54.070;10.012;2023-07-30T12:30:58;100486.91;;;26.05;100.00
30421;BME280;17218;54.070;10.012;2023-07-30T12:33:24;100486.66;;;26.08;100.00
30421;BME280;17218;54.070;10.012;2023-07-30T12:35:51;100488.63;;;26.40;100.00